Time;durP1;ratioP1;P1;durP2;ratioP2;P2;SDS_P1;SDS_P2;PMS_P1;PMS_P2;Temp;Humidity;BMP_temperature;BMP_pressure;BME280_temperature;BME280_humidity;BME280_pressure;Samples;Min_cycle;Max_cycle;Signal;HPM_P1;HPM_P2
2023/08/12 00:02:16;;;;;;;24.23;16.10;;;;;;;19.09;100.00;101729.13;4972509;28;20054;-76
2023/08/12 00:04:45;;;;;;;25.80;16.92;;;;;;;19.09;100.00;101729.13;4990484;28;20042;-76
2023/08/12 00:07:13;;;;;;;28.50;16.95;;;;;;;19.08;100.00;101730.03;4987875;28;20058;-75
2023/08/12 00:09:40;;;;;;;21.20;15.80;;;;;;;19.08;100.00;101729.16;4943739;28;20407;-76
2023/08/12 00:12:07;;;;;;;27.20;17.23;;;;;;;19.07;100.00;101736.31;4971186;28;20500;-76
2023/08/12 00:14:35;;;;;;;25.55;17.88;;;;;;;19.05;100.00;101732.78;4954592;28;20078;-75
2023/08/12 00:17:02;;;;;;;27.15;19.50;;;;;;;19.05;100.00;101737.22;4972817;28;20666;-76
2023/08/12 00:19:29;;;;;;;27.75;18.70;;;;;;;19.04;100.00;101746.16;4970805;28;20544;-76
2023/08/12 00:21:57;;;;;;;23.27;17.13;;;;;;;19.02;100.00;101742.63;4991399;28;20530;-76
2023/08/12 00:24:24;;;;;;;26.23;18.42;;;;;;;19.01;100.00;101740.84;4981685;28;20503;-75
2023/08/12 00:26:51;;;;;;;23.17;17.75;;;;;;;18.97;100.00;101729.34;4931849;28;20034;-76
2023/08/12 00:29:21;;;;;;;25.58;17.90;;;;;;;18.96;100.00;101732.03;4960108;28;20382;-76
2023/08/12 00:31:48;;;;;;;24.25;17.25;;;;;;;18.95;100.00;101736.50;4972371;28;20530;-76
2023/08/12 00:34:17;;;;;;;24.75;17.48;;;;;;;18.93;100.00;101741.00;4969264;28;20069;-76
2023/08/12 00:36:44;;;;;;;30.40;17.30;;;;;;;18.93;100.00;101737.44;4953121;28;20051;-76
2023/08/12 00:39:12;;;;;;;27.50;17.60;;;;;;;18.91;100.00;101742.81;4970318;28;20062;-75
2023/08/12 00:41:40;;;;;;;21.27;16.60;;;;;;;18.90;100.00;101743.72;4930600;28;20512;-75
2023/08/12 00:44:07;;;;;;;26.35;16.92;;;;;;;18.89;100.00;101736.63;4980963;28;20046;-75
2023/08/12 00:46:37;;;;;;;26.30;17.45;;;;;;;18.88;100.00;101737.50;4969194;28;20042;-75
2023/08/12 00:49:05;;;;;;;25.23;17.98;;;;;;;18.86;100.00;101729.53;4988202;28;20053;-76
2023/08/12 00:51:32;;;;;;;25.48;16.33;;;;;;;18.85;100.00;101733.13;4970743;28;20674;-76
2023/08/12 00:54:06;;;;;;;25.02;16.30;;;;;;;18.84;100.00;101733.13;4972800;28;20038;-76
2023/08/12 00:56:35;;;;;;;18.45;15.27;;;;;;;18.81;100.00;101734.09;4928543;28;20856;-76
2023/08/12 00:59:08;;;;;;;18.70;15.65;;;;;;;18.81;100.00;101731.41;4976701;28;20053;-77
2023/08/12 01:01:39;;;;;;;21.83;15.63;;;;;;;18.81;100.00;101725.16;4970288;28;20085;-77
2023/08/12 01:04:07;;;;;;;21.20;15.50;;;;;;;18.78;100.00;101720.75;4969724;28;20053;-76
2023/08/12 01:06:36;;;;;;;20.92;15.18;;;;;;;18.77;100.00;101723.44;4970603;28;20055;-75
2023/08/12 01:09:05;;;;;;;19.35;14.20;;;;;;;18.76;100.00;101724.34;4971581;28;20042;-76
2023/08/12 01:12:02;;;;;;;19.70;14.07;;;;;;;18.74;100.00;101728.84;4930042;28;20758;-75
2023/08/12 01:14:40;;;;;;;23.75;13.35;;;;;;;18.72;100.00;101718.19;4967157;28;20058;-76
2023/08/12 01:17:11;;;;;;;19.67;11.73;;;;;;;18.72;100.00;101714.66;4963370;28;20046;-75
2023/08/12 01:19:40;;;;;;;19.40;11.73;;;;;;;18.70;100.00;101718.19;4971000;28;20054;-75
2023/08/12 01:22:10;;;;;;;18.42;11.05;;;;;;;18.68;100.00;101722.69;4985603;28;20046;-77
2023/08/12 01:24:43;;;;;;;10.88;8.80;;;;;;;18.67;100.00;101717.38;4986490;28;20046;-76
2023/08/12 01:27:12;;;;;;;13.63;9.32;;;;;;;18.66;100.00;101720.97;4957865;28;20042;-76
2023/08/12 01:29:45;;;;;;;13.13;9.60;;;;;;;18.64;100.00;101720.09;4967032;28;20046;-77
2023/08/12 01:32:21;;;;;;;14.15;9.27;;;;;;;18.63;100.00;101721.00;4976407;28;20058;-76
2023/08/12 01:34:57;;;;;;;9.02;7.10;;;;;;;18.61;100.00;101718.34;4971389;28;20522;-76
2023/08/12 01:37:28;;;;;;;8.93;6.72;;;;;;;18.60;100.00;101715.69;4985956;28;20050;-76
2023/08/12 01:39:58;;;;;;;9.38;6.60;;;;;;;18.59;100.00;101704.16;4971507;28;20053;-76
2023/08/12 01:42:27;;;;;;;12.40;8.10;;;;;;;18.57;100.00;101708.63;4929713;28;20057;-76
2023/08/12 01:44:55;;;;;;;11.50;7.40;;;;;;;18.57;100.00;101710.44;4983315;28;20047;-76
2023/08/12 01:47:25;;;;;;;10.90;6.50;;;;;;;18.54;100.00;101700.66;4958225;28;20050;-77
2023/08/12 01:49:53;;;;;;;15.52;6.47;;;;;;;18.53;100.00;101693.59;4988663;28;20069;-76
2023/08/12 01:52:20;;;;;;;10.40;5.82;;;;;;;18.53;100.00;101690.91;4968248;28;20046;-75
2023/08/12 01:54:48;;;;;;;7.40;6.07;;;;;;;18.51;100.00;101682.06;4988374;28;20042;-74
2023/08/12 01:57:16;;;;;;;10.90;6.47;;;;;;;18.50;100.00;101680.28;4931649;28;20046;-76
2023/08/12 01:59:43;;;;;;;8.38;5.22;;;;;;;18.48;100.00;101674.97;4970093;28;20058;-75
2023/08/12 02:02:11;;;;;;;7.78;5.43;;;;;;;18.46;100.00;101671.44;4949849;28;20050;-77
2023/08/12 02:04:39;;;;;;;12.98;6.00;;;;;;;18.46;100.00;101673.22;4971695;28;20038;-76
2023/08/12 02:07:08;;;;;;;8.23;5.43;;;;;;;18.45;100.00;101674.13;4969163;28;20072;-75
2023/08/12 02:09:36;;;;;;;6.43;4.88;;;;;;;18.43;100.00;101665.28;4968753;28;20050;-75
2023/08/12 02:12:04;;;;;;;8.55;5.30;;;;;;;18.42;100.00;101668.88;4969268;28;20050;-76
2023/08/12 02:14:31;;;;;;;9.05;4.97;;;;;;;18.41;100.00;101667.09;4921012;28;20053;-76
2023/08/12 02:17:00;;;;;;;7.68;4.85;;;;;;;18.39;100.00;101672.47;4966546;28;20045;-75
2023/08/12 02:19:28;;;;;;;7.55;5.13;;;;;;;18.38;100.00;101660.03;4968365;28;20157;-76
2023/08/12 02:21:55;;;;;;;7.88;5.72;;;;;;;18.36;100.00;101655.63;4970646;28;20543;-75
2023/08/12 02:24:22;;;;;;;8.27;5.20;;;;;;;18.33;100.00;101653.88;4967164;28;20054;-75
2023/08/12 02:26:50;;;;;;;8.25;5.30;;;;;;;18.32;100.00;101660.13;4971111;28;20050;-76
2023/08/12 02:29:17;;;;;;;8.20;5.10;;;;;;;18.30;100.00;101659.28;4927049;28;20054;-76
2023/08/12 02:31:45;;;;;;;6.10;4.60;;;;;;;18.27;100.00;101657.50;4989740;28;20058;-76
2023/08/12 02:34:12;;;;;;;8.00;4.78;;;;;;;18.26;100.00;101653.09;5000185;28;20043;-76
2023/08/12 02:36:39;;;;;;;6.60;4.47;;;;;;;18.25;100.00;101647.78;5002247;28;20049;-75
2023/08/12 02:39:07;;;;;;;8.85;4.95;;;;;;;18.23;100.00;101652.28;4969018;28;20428;-76
2023/08/12 02:41:34;;;;;;;10.63;4.50;;;;;;;18.21;100.00;101651.41;4984673;28;20050;-76
2023/08/12 02:44:02;;;;;;;7.78;4.40;;;;;;;18.20;100.00;101653.19;4944681;28;20435;-76
2023/08/12 02:46:29;;;;;;;8.48;4.88;;;;;;;18.19;100.00;101658.56;4977096;28;20079;-75
2023/08/12 02:48:57;;;;;;;5.88;4.45;;;;;;;18.17;100.00;101657.72;4950595;28;20055;-75
2023/08/12 02:51:24;;;;;;;7.80;3.92;;;;;;;18.15;100.00;101647.06;4964017;28;20035;-76
2023/08/12 02:53:51;;;;;;;5.47;4.65;;;;;;;18.14;100.00;101644.41;4998353;28;20055;-77
2023/08/12 02:56:19;;;;;;;5.95;4.95;;;;;;;18.12;100.00;101650.63;4979587;28;20047;-75
2023/08/12 02:58:47;;;;;;;13.68;5.43;;;;;;;18.13;100.00;101648.88;4965742;28;20055;-75
2023/08/12 03:01:15;;;;;;;9.73;4.85;;;;;;;18.11;100.00;101640.00;4971245;28;20054;-75
2023/08/12 03:03:43;;;;;;;8.25;5.05;;;;;;;18.12;100.00;101644.44;4936515;28;20074;-75
2023/08/12 03:06:10;;;;;;;7.22;4.63;;;;;;;18.13;100.00;101640.88;4948025;28;20055;-76
2023/08/12 03:08:38;;;;;;;7.70;5.20;;;;;;;18.12;100.00;101644.44;4965301;28;20047;-76
2023/08/12 03:11:07;;;;;;;8.15;5.00;;;;;;;18.12;100.00;101637.28;4981470;28;20412;-76
2023/08/12 03:13:34;;;;;;;7.53;4.97;;;;;;;18.11;100.00;101638.22;4997137;28;20046;-76
2023/08/12 03:16:02;;;;;;;9.45;5.10;;;;;;;18.11;100.00;101630.22;4946838;28;20511;-75
2023/08/12 03:18:31;;;;;;;6.22;4.80;;;;;;;18.12;100.00;101631.09;4963736;28;20059;-77
2023/08/12 03:20:59;;;;;;;7.03;4.82;;;;;;;18.10;100.00;101630.22;4965599;28;20051;-76
2023/08/12 03:23:29;;;;;;;16.23;5.22;;;;;;;18.09;100.00;101617.78;4965517;28;20047;-75
2023/08/12 03:25:57;;;;;;;8.18;5.25;;;;;;;18.09;100.00;101613.34;4966198;28;20050;-75
2023/08/12 03:28:25;;;;;;;8.13;5.47;;;;;;;18.11;100.00;101613.34;4963406;28;20055;-76
2023/08/12 03:30:55;;;;;;;7.20;5.80;;;;;;;18.12;100.00;101602.63;4966000;28;20042;-76
2023/08/12 03:33:24;;;;;;;10.85;5.28;;;;;;;18.13;100.00;101598.19;4929851;28;20063;-76
2023/08/12 03:35:54;;;;;;;9.27;5.27;;;;;;;18.13;100.00;101600.84;4965847;28;20054;-76
2023/08/12 03:38:21;;;;;;;8.88;6.00;;;;;;;18.14;100.00;101588.41;4962723;28;20054;-76
2023/08/12 03:40:50;;;;;;;12.30;6.60;;;;;;;18.12;100.00;101573.28;4966345;28;20055;-75
2023/08/12 03:43:18;;;;;;;10.23;6.55;;;;;;;18.11;100.00;101576.88;4968176;28;20055;-76
2023/08/12 03:45:47;;;;;;;9.68;6.22;;;;;;;18.11;100.00;101579.53;4978969;28;20051;-75
2023/08/12 03:48:18;;;;;;;7.72;6.32;;;;;;;18.11;100.00;101590.22;4926214;28;20046;-76
2023/08/12 03:50:47;;;;;;;8.48;6.28;;;;;;;18.11;100.00;101589.34;4978347;28;20440;-75
2023/08/12 03:53:14;;;;;;;10.43;7.00;;;;;;;18.11;100.00;101589.34;4963014;28;20055;-75
2023/08/12 03:55:42;;;;;;;11.35;7.03;;;;;;;18.12;100.00;101591.09;4965279;28;20054;-75
2023/08/12 03:58:12;;;;;;;12.93;6.95;;;;;;;18.12;100.00;101597.28;4949694;28;20043;-75
2023/08/12 04:00:42;;;;;;;13.10;7.78;;;;;;;18.14;100.00;101594.59;4965098;28;20066;-76
2023/08/12 04:03:11;;;;;;;10.15;7.07;;;;;;;18.16;100.00;101610.59;4929973;28;20054;-75
2023/08/12 04:05:51;;;;;;;13.60;7.85;;;;;;;18.17;100.00;101597.22;4961962;28;20061;-76
2023/08/12 04:08:21;;;;;;;;;;;;;;;18.17;100.00;101586.56;4952330;28;20043;-76
2023/08/12 04:10:51;;;;;;;12.35;8.20;;;;;;;18.19;100.00;101589.22;4964206;28;19929;-78
2023/08/12 04:13:19;;;;;;;17.83;8.40;;;;;;;18.19;100.00;101587.41;4961868;28;20055;-75
2023/08/12 04:15:50;;;;;;;10.65;7.85;;;;;;;18.19;100.00;101582.06;4965680;28;20055;-75
2023/08/12 04:18:19;;;;;;;13.45;8.50;;;;;;;18.20;100.00;101577.63;4931158;28;20041;-76
2023/08/12 04:20:48;;;;;;;11.48;7.45;;;;;;;18.19;100.00;101571.41;4969583;28;20057;-75
2023/08/12 04:23:15;;;;;;;12.90;10.20;;;;;;;18.19;100.00;101568.75;4955179;28;20077;-76
2023/08/12 04:25:48;;;;;;;12.80;9.10;;;;;;;18.17;100.00;101567.88;4969070;28;20051;-75
2023/08/12 04:28:18;;;;;;;18.83;9.05;;;;;;;18.18;100.00;101563.44;4965630;28;20497;-76
2023/08/12 04:30:48;;;;;;;;;;;;;;;18.17;100.00;101565.22;4969930;28;20058;-75
2023/08/12 04:33:16;;;;;;;10.95;7.55;;;;;;;18.16;100.00;101560.78;4950382;28;19922;-76
2023/08/12 04:35:45;;;;;;;12.40;7.45;;;;;;;18.16;100.00;101565.25;4974367;28;20059;-75
2023/08/12 04:38:15;;;;;;;12.67;8.50;;;;;;;18.16;100.00;101560.78;4936620;28;20051;-75
2023/08/12 04:40:43;;;;;;;11.48;8.25;;;;;;;18.16;100.00;101555.44;4952340;28;20050;-76
2023/08/12 04:43:13;;;;;;;13.65;8.70;;;;;;;18.16;100.00;101550.09;4998395;28;20496;-75
2023/08/12 04:45:40;;;;;;;14.60;8.90;;;;;;;18.16;100.00;101552.78;4983977;28;20059;-75
2023/08/12 04:48:10;;;;;;;12.98;9.07;;;;;;;18.18;100.00;101550.09;4966644;28;20058;-75
2023/08/12 04:50:38;;;;;;;18.73;9.73;;;;;;;18.19;100.00;101543.88;4957336;28;20049;-75
2023/08/12 04:53:05;;;;;;;11.63;9.40;;;;;;;18.20;100.00;101548.28;4959797;28;20062;-75
2023/08/12 04:55:34;;;;;;;12.70;8.85;;;;;;;18.22;100.00;101552.69;4950334;28;20047;-75
2023/08/12 04:58:02;;;;;;;18.48;9.15;;;;;;;18.25;100.00;101552.63;4962278;28;20047;-75
2023/08/12 05:00:30;;;;;;;12.68;9.07;;;;;;;18.25;100.00;101549.94;4969241;28;20054;-75
2023/08/12 05:02:58;;;;;;;17.33;9.27;;;;;;;18.27;100.00;101548.13;4971698;28;20051;-77
2023/08/12 05:05:28;;;;;;;15.63;10.90;;;;;;;18.29;100.00;101559.66;4935753;28;20053;-76
2023/08/12 05:07:56;;;;;;;13.68;8.77;;;;;;;18.30;100.00;101553.44;4967142;28;20053;-76
2023/08/12 05:10:24;;;;;;;15.32;9.80;;;;;;;18.32;100.00;101545.41;4968603;28;20058;-76
2023/08/12 05:12:54;;;;;;;16.92;10.05;;;;;;;18.33;100.00;101544.47;4971027;28;20046;-76
2023/08/12 05:15:22;;;;;;;18.10;10.35;;;;;;;18.34;100.00;101548.06;4967376;28;20559;-76
2023/08/12 05:17:49;;;;;;;20.38;9.98;;;;;;;18.35;100.00;101542.66;4971327;28;20043;-76
2023/08/12 05:20:20;;;;;;;16.30;10.00;;;;;;;18.37;100.00;101535.50;4926436;28;20063;-75
2023/08/12 05:22:47;;;;;;;19.27;11.45;;;;;;;18.38;100.00;101523.06;4984741;28;20050;-76
2023/08/12 05:25:15;;;;;;;21.30;10.85;;;;;;;18.41;100.00;101520.31;4945680;28;20070;-76
2023/08/12 05:27:42;;;;;;;16.05;9.98;;;;;;;18.42;100.00;101519.44;4971174;28;20038;-76
2023/08/12 05:30:10;;;;;;;17.27;10.55;;;;;;;18.43;100.00;101522.06;4969373;28;20077;-76
2023/08/12 05:32:38;;;;;;;19.08;10.75;;;;;;;18.45;100.00;101524.69;4970738;28;20073;-76
2023/08/12 05:35:06;;;;;;;20.20;11.38;;;;;;;18.47;100.00;101528.25;4955213;28;20042;-75
2023/08/12 05:37:33;;;;;;;17.98;11.43;;;;;;;18.48;100.00;101525.50;4963597;28;20042;-76
2023/08/12 05:40:01;;;;;;;20.38;11.80;;;;;;;18.50;100.00;101522.81;4961623;28;20054;-76
2023/08/12 05:42:28;;;;;;;22.85;11.18;;;;;;;18.51;100.00;101522.81;4952949;28;20061;-75
2023/08/12 05:44:55;;;;;;;17.05;12.07;;;;;;;18.54;100.00;101516.50;5003841;28;20062;-76
2023/08/12 05:47:23;;;;;;;19.13;11.13;;;;;;;18.59;100.00;101503.09;4983869;28;20471;-76
2023/08/12 05:49:50;;;;;;;14.98;10.32;;;;;;;18.66;100.00;101504.75;5003987;28;20046;-75
2023/08/12 05:52:17;;;;;;;18.83;10.68;;;;;;;18.74;100.00;101505.44;4945188;28;20049;-76
2023/08/12 05:54:45;;;;;;;15.75;10.82;;;;;;;18.86;100.00;101509.69;4966239;28;20046;-76
2023/08/12 05:57:12;;;;;;;17.50;11.57;;;;;;;18.97;100.00;101510.34;4969102;28;20046;-76
2023/08/12 05:59:39;;;;;;;15.32;10.82;;;;;;;19.07;100.00;101505.69;4970706;28;20051;-75
2023/08/12 06:02:07;;;;;;;14.25;11.40;;;;;;;19.15;100.00;101503.75;4970607;28;20236;-76
2023/08/12 06:04:34;;;;;;;16.58;10.65;;;;;;;19.21;100.00;101511.59;4969576;28;20840;-76
2023/08/12 06:07:02;;;;;;;15.48;10.32;;;;;;;19.27;100.00;101507.94;4960639;28;20863;-76
2023/08/12 06:09:29;;;;;;;14.77;10.45;;;;;;;19.31;100.00;101500.72;4957869;28;20049;-76
2023/08/12 06:11:57;;;;;;;19.20;11.10;;;;;;;19.34;100.00;101497.97;4962103;28;20038;-76
2023/08/12 06:14:24;;;;;;;16.85;11.15;;;;;;;19.37;100.00;101497.91;4967358;28;20058;-76
2023/08/12 06:16:51;;;;;;;14.43;10.00;;;;;;;19.41;100.00;101511.16;4972084;28;20061;-75
2023/08/12 06:19:19;;;;;;;17.20;10.52;;;;;;;19.44;100.00;101500.38;4966820;28;20042;-75
2023/08/12 06:21:46;;;;;;;14.65;9.75;;;;;;;19.49;100.00;101502.97;4955197;28;20054;-77
2023/08/12 06:24:14;;;;;;;14.52;9.93;;;;;;;19.54;100.00;101493.03;4927305;28;20648;-75
2023/08/12 06:26:41;;;;;;;16.88;9.45;;;;;;;19.59;100.00;101492.94;4985198;28;20061;-76
2023/08/12 06:29:08;;;;;;;14.15;9.75;;;;;;;19.64;100.00;101482.97;4965884;28;20061;-75
2023/08/12 06:31:36;;;;;;;15.43;10.20;;;;;;;19.69;100.00;101481.09;4970187;28;20511;-75
2023/08/12 06:34:03;;;;;;;15.73;9.32;;;;;;;19.73;100.00;101479.25;4969402;28;20049;-76
2023/08/12 06:36:31;;;;;;;18.15;10.02;;;;;;;19.77;100.00;101479.16;4984955;28;20483;-76
2023/08/12 06:38:58;;;;;;;12.57;9.35;;;;;;;19.78;100.00;101475.53;4984418;28;20054;-76
2023/08/12 06:41:26;;;;;;;15.98;10.23;;;;;;;19.80;100.00;101471.03;4939955;28;20534;-76
2023/08/12 06:43:53;;;;;;;11.95;8.52;;;;;;;19.82;100.00;101461.19;4963532;28;20054;-77
2023/08/12 06:46:20;;;;;;;12.18;8.85;;;;;;;19.87;100.00;101453.06;4967993;28;20058;-75
2023/08/12 06:48:48;;;;;;;13.32;9.15;;;;;;;19.89;100.00;101458.38;4970050;28;20050;-75
2023/08/12 06:51:15;;;;;;;17.75;10.07;;;;;;;19.93;100.00;101462.72;4967543;28;20053;-75
2023/08/12 06:53:43;;;;;;;23.42;8.63;;;;;;;19.95;100.00;101466.22;4954356;28;20046;-76
2023/08/12 06:56:10;;;;;;;14.38;9.43;;;;;;;19.94;100.00;101462.66;4921990;28;20057;-77
2023/08/12 06:58:37;;;;;;;12.88;9.20;;;;;;;19.94;100.00;101476.03;4977445;28;20053;-76
2023/08/12 07:01:05;;;;;;;11.60;9.07;;;;;;;19.95;100.00;101468.91;4955545;28;20050;-76
2023/08/12 07:03:32;;;;;;;15.38;9.05;;;;;;;19.95;100.00;101474.25;4987009;28;20054;-76
2023/08/12 07:06:01;;;;;;;11.68;9.20;;;;;;;19.94;100.00;101469.81;4970506;28;20054;-77
2023/08/12 07:08:29;;;;;;;11.57;8.57;;;;;;;19.95;100.00;101471.56;4968263;28;20042;-75
2023/08/12 07:10:56;;;;;;;12.48;8.40;;;;;;;19.98;100.00;101483.06;4932316;28;20057;-76
2023/08/12 07:13:24;;;;;;;13.98;9.43;;;;;;;19.99;100.00;101489.28;4990296;28;20046;-75
2023/08/12 07:15:51;;;;;;;13.27;9.27;;;;;;;19.99;100.00;101482.13;4954277;28;20061;-76
2023/08/12 07:18:18;;;;;;;14.73;9.73;;;;;;;19.96;100.00;101474.22;4967038;28;20061;-76
2023/08/12 07:20:46;;;;;;;14.73;9.68;;;;;;;19.96;100.00;101478.66;4969970;28;20054;-77
2023/08/12 07:23:13;;;;;;;17.27;9.25;;;;;;;19.96;100.00;101479.56;4967620;28;20045;-76
2023/08/12 07:25:41;;;;;;;13.80;10.00;;;;;;;19.94;100.00;101475.16;4932627;28;20038;-75
2023/08/12 07:28:08;;;;;;;15.07;9.70;;;;;;;19.92;100.00;101477.00;4975241;28;20061;-75
2023/08/12 07:30:36;;;;;;;16.15;10.40;;;;;;;19.89;100.00;101479.75;4969172;28;20050;-75
2023/08/12 07:33:04;;;;;;;18.27;10.55;;;;;;;19.87;100.00;101479.78;4968182;28;20053;-77
2023/08/12 07:35:31;;;;;;;17.67;11.05;;;;;;;19.85;100.00;101479.84;4968488;28;20047;-76
2023/08/12 07:37:59;;;;;;;19.17;10.93;;;;;;;19.84;100.00;101488.75;4969643;28;20057;-76
2023/08/12 07:40:26;;;;;;;18.58;11.07;;;;;;;19.83;100.00;101479.00;4942371;28;20050;-75
2023/08/12 07:42:54;;;;;;;14.68;10.38;;;;;;;19.81;100.00;101479.94;4959397;28;20073;-76
2023/08/12 07:45:21;;;;;;;13.57;10.57;;;;;;;19.81;100.00;101480.84;4951504;28;20055;-76
2023/08/12 07:47:50;;;;;;;17.85;11.77;;;;;;;19.80;100.00;101471.03;4969628;28;20073;-75
2023/08/12 07:50:17;;;;;;;16.48;12.30;;;;;;;19.80;100.00;101470.16;4965537;28;20054;-76
2023/08/12 07:52:45;;;;;;;17.40;11.82;;;;;;;19.80;100.00;101457.66;4987258;28;20042;-76
2023/08/12 07:55:12;;;;;;;19.30;12.13;;;;;;;19.80;100.00;101448.78;4969068;28;20073;-76
2023/08/12 07:57:40;;;;;;;21.95;12.57;;;;;;;19.82;100.00;101453.16;4923189;28;20046;-75
2023/08/12 08:00:08;;;;;;;18.45;12.32;;;;;;;19.83;100.00;101438.88;5006442;28;20057;-76
2023/08/12 08:02:36;;;;;;;20.45;12.05;;;;;;;19.87;100.00;101437.00;4987536;28;20076;-76
2023/08/12 08:05:04;;;;;;;20.60;12.68;;;;;;;19.93;100.00;101436.84;4988972;28;20053;-75
2023/08/12 08:07:31;;;;;;;15.93;12.25;;;;;;;19.97;100.00;101443.00;4971391;28;20763;-76
2023/08/12 08:09:59;;;;;;;19.70;12.65;;;;;;;20.01;100.00;101453.56;5004959;28;20057;-76
2023/08/12 08:12:26;;;;;;;18.73;13.23;;;;;;;20.04;100.00;101442.78;4927421;28;20046;-76
2023/08/12 08:14:54;;;;;;;23.63;14.45;;;;;;;20.07;100.00;101447.16;4945479;28;20401;-76
2023/08/12 08:17:21;;;;;;;22.17;13.88;;;;;;;20.10;100.00;101449.75;4970092;28;20054;-76
2023/08/12 08:19:48;;;;;;;16.42;13.00;;;;;;;20.15;100.00;101445.19;4990289;28;20046;-77
2023/08/12 08:22:16;;;;;;;19.83;14.55;;;;;;;20.18;100.00;101441.53;4979366;28;20522;-75
2023/08/12 08:24:43;;;;;;;20.05;13.65;;;;;;;20.21;100.00;101445.00;4964318;28;20054;-76
2023/08/12 08:27:11;;;;;;;18.42;13.02;;;;;;;20.24;100.00;101447.59;4924085;28;20038;-76
2023/08/12 08:29:38;;;;;;;23.77;14.45;;;;;;;20.30;100.00;101446.53;4969073;28;20046;-75
2023/08/12 08:32:06;;;;;;;19.45;13.48;;;;;;;20.36;100.00;101456.19;4955535;28;20046;-76
2023/08/12 08:34:33;;;;;;;19.88;14.27;;;;;;;20.38;100.00;101455.25;4988214;28;20053;-76
2023/08/12 08:37:01;;;;;;;20.83;14.35;;;;;;;20.40;100.00;101449.84;4973029;28;20495;-77
2023/08/12 08:39:28;;;;;;;22.77;14.65;;;;;;;20.42;100.00;101448.88;4969420;28;20835;-76
2023/08/12 08:41:56;;;;;;;20.27;13.95;;;;;;;20.47;100.00;101446.03;4990131;28;20073;-76
2023/08/12 08:44:28;;;;;;;19.02;13.55;;;;;;;20.52;100.00;101440.59;4936161;28;20076;-75
2023/08/12 08:46:58;;;;;;;20.38;14.70;;;;;;;20.54;100.00;101444.97;4972020;28;20057;-76
2023/08/12 08:49:28;;;;;;;20.40;14.80;;;;;;;20.56;100.00;101437.75;4940188;28;20051;-75
2023/08/12 08:51:56;;;;;;;19.70;14.45;;;;;;;20.60;100.00;101438.59;4972638;28;20050;-76
2023/08/12 08:54:23;;;;;;;20.02;14.55;;;;;;;20.62;100.00;101443.00;4969254;28;20467;-76
2023/08/12 08:56:51;;;;;;;20.40;14.35;;;;;;;20.66;100.00;101437.53;4972606;28;20053;-76
2023/08/12 08:59:36;;;;;;;21.92;15.52;;;;;;;20.69;100.00;101435.63;4976393;28;20038;-76
2023/08/12 09:02:05;;;;;;;20.17;15.05;;;;;;;20.73;100.00;101431.06;4964266;28;20050;-76
2023/08/12 09:04:33;;;;;;;21.45;14.90;;;;;;;20.74;100.00;101430.16;4969486;28;20467;-76
2023/08/12 09:07:01;;;;;;;20.13;16.27;;;;;;;20.74;100.00;101417.63;4970593;28;20492;-77
2023/08/12 09:09:29;;;;;;;20.95;14.27;;;;;;;20.76;100.00;101417.59;4969961;28;20118;-76
2023/08/12 09:11:56;;;;;;;18.98;14.50;;;;;;;20.77;100.00;101425.56;4971772;28;20042;-76
2023/08/12 09:14:24;;;;;;;20.48;14.95;;;;;;;20.78;100.00;101419.28;4927303;28;20054;-76
2023/08/12 09:16:51;;;;;;;22.85;14.75;;;;;;;20.78;100.00;101423.78;4977857;28;20046;-76
2023/08/12 09:19:19;;;;;;;20.48;14.75;;;;;;;20.76;100.00;101418.47;4967831;28;20057;-77
2023/08/12 09:21:53;;;;;;;18.05;14.85;;;;;;;20.74;100.00;101411.41;4971577;28;20054;-76
2023/08/12 09:24:27;;;;;;;19.98;15.48;;;;;;;20.73;100.00;101420.34;4968750;28;20043;-76
2023/08/12 09:26:58;;;;;;;23.98;16.05;;;;;;;20.72;100.00;101410.56;4972187;28;20073;-75
2023/08/12 09:29:33;;;;;;;21.92;15.93;;;;;;;20.68;100.00;101400.88;4945043;28;20049;-76
2023/08/12 09:32:17;;;;;;;21.00;16.50;;;;;;;20.64;100.00;101400.06;4974013;28;20073;-76
2023/08/12 09:34:53;;;;;;;25.05;17.05;;;;;;;20.60;100.00;101385.03;4988475;28;20049;-76
2023/08/12 09:37:23;;;;;;;21.90;16.38;;;;;;;20.58;100.00;101393.06;4967717;28;20050;-76
2023/08/12 09:39:52;;;;;;;26.77;17.27;;;;;;;20.58;100.00;101409.13;4971823;28;20424;-76
2023/08/12 09:42:19;;;;;;;25.77;16.85;;;;;;;20.57;100.00;101398.50;4983785;28;20116;-76
2023/08/12 09:44:47;;;;;;;20.38;15.98;;;;;;;20.59;100.00;101400.19;4963985;28;20586;-76
2023/08/12 09:47:14;;;;;;;19.90;16.55;;;;;;;20.59;100.00;101400.19;4983852;28;20416;-76
2023/08/12 09:49:42;;;;;;;23.83;17.60;;;;;;;20.59;100.00;101386.81;4973998;28;20408;-77
2023/08/12 09:52:09;;;;;;;24.92;17.42;;;;;;;20.58;100.00;101390.41;4970519;28;20046;-76
2023/08/12 09:54:38;;;;;;;26.83;18.52;;;;;;;20.56;100.00;101394.91;4970626;28;20057;-76
2023/08/12 09:57:08;;;;;;;27.02;19.17;;;;;;;20.54;100.00;101402.13;4969621;28;20525;-77
2023/08/12 09:59:35;;;;;;;24.92;18.38;;;;;;;20.52;100.00;101409.31;4969935;28;20527;-77
2023/08/12 10:02:05;;;;;;;25.40;17.52;;;;;;;20.50;100.00;101405.81;4927693;28;20488;-77
2023/08/12 10:04:41;;;;;;;25.83;18.35;;;;;;;20.46;100.00;101404.16;4948275;28;20058;-76
2023/08/12 10:07:14;;;;;;;28.33;18.15;;;;;;;20.45;100.00;101413.09;4986375;28;20484;-76
2023/08/12 10:09:43;;;;;;;26.30;19.00;;;;;;;20.43;100.00;101406.91;4970185;28;20047;-76
2023/08/12 10:12:12;;;;;;;23.10;18.52;;;;;;;20.42;100.00;101415.88;4984742;28;20050;-76
2023/08/12 10:14:44;;;;;;;24.33;17.88;;;;;;;20.40;100.00;101420.41;4987989;28;20480;-76
2023/08/12 10:17:12;;;;;;;24.75;17.45;;;;;;;20.39;100.00;101415.97;4918462;28;20055;-75
2023/08/12 10:19:44;;;;;;;22.90;16.75;;;;;;;20.36;100.00;101408.91;4956966;28;20061;-76
2023/08/12 10:22:12;;;;;;;26.27;18.48;;;;;;;20.34;100.00;101417.88;4971037;28;20420;-75
2023/08/12 10:24:42;;;;;;;25.20;17.05;;;;;;;20.32;100.00;101411.69;4985469;28;20061;-77
2023/08/12 10:27:12;;;;;;;22.02;17.02;;;;;;;20.30;100.00;101409.06;4995057;28;20480;-76
2023/08/12 10:29:42;;;;;;;24.10;16.80;;;;;;;20.29;100.00;101407.31;4985698;28;20496;-75
2023/08/12 10:32:10;;;;;;;24.35;16.98;;;;;;;20.28;100.00;101400.19;4942385;28;20042;-75
2023/08/12 10:34:38;;;;;;;21.00;16.33;;;;;;;20.29;100.00;101406.44;4969252;28;20073;-76
2023/08/12 10:37:09;;;;;;;19.35;15.93;;;;;;;20.30;100.00;101409.06;4967930;28;20061;-75
2023/08/12 10:39:36;;;;;;;;;;;;;;;20.30;100.00;101400.16;4985968;28;20046;-75
2023/08/12 10:42:04;;;;;;;21.85;16.02;;;;;;;20.28;100.00;101396.66;4984130;28;19922;-75
2023/08/12 10:44:43;;;;;;;22.55;15.43;;;;;;;20.27;100.00;101392.25;4950934;28;20054;-75
2023/08/12 10:47:10;;;;;;;18.70;15.73;;;;;;;20.25;100.00;101393.16;4957046;28;20053;-76
2023/08/12 10:49:42;;;;;;;17.95;14.60;;;;;;;20.26;100.00;101383.31;4993232;28;20062;-77
2023/08/12 10:52:29;;;;;;;19.25;14.88;;;;;;;20.24;100.00;101386.06;4966545;28;20061;-76
2023/08/12 10:55:21;;;;;;;17.88;15.18;;;;;;;20.23;100.00;101378.94;4973999;28;20042;-75
2023/08/12 10:57:51;;;;;;;18.52;14.55;;;;;;;20.27;100.00;101376.19;4986743;28;20423;-76
2023/08/12 11:00:24;;;;;;;16.70;14.32;;;;;;;20.29;100.00;101371.66;4984033;28;20039;-76
2023/08/12 11:02:54;;;;;;;16.00;14.10;;;;;;;20.32;100.00;101375.13;4968267;28;20054;-76
2023/08/12 11:05:22;;;;;;;16.75;14.10;;;;;;;20.35;100.00;101368.78;4919827;28;20058;-76
2023/08/12 11:08:00;;;;;;;13.80;11.55;;;;;;;20.37;100.00;101367.81;4969283;28;20050;-77
2023/08/12 11:10:33;;;;;;;13.57;11.63;;;;;;;20.38;100.00;101371.41;4966781;28;20042;-76
2023/08/12 11:13:02;;;;;;;12.43;9.13;;;;;;;20.39;100.00;101376.69;4969740;28;20046;-76
2023/08/12 11:15:46;;;;;;;15.70;9.73;;;;;;;20.43;100.00;101373.00;4984341;28;20060;-76